Aérodrome :
LOGIN :

S'inscrire | Disclaimer

   EN    FR    IT 

 










Légende :    VFR   VFR Marginal   IFR   IFR Intensif   IFR Très Intensif
Visi : 
Plafond : 
>= 8 km
>= 3000ft
5 à 8 km
1000 à 3000 ft
1500m à 5 km
500 à 1000 ft
800 à 1500m
200 à 500 ft
< 800m
< 200 ft
Symboles :   Orages  Brouillard  Fortes neiges  Fortes précipitations  Vent > 20 kt
SIGMETs :   Divers  Orages  Givrage  Turbulence  Onde Orograph.  Cendres Volcan.






- Altitude de l'aérodrome : 502 ft
- Code IATA : ORK


EICK - Cork

DERNIER METAR :
  • 280700Z 27007KT 9999 SCT016CB 01/M00 Q0995 TEMPO 3000 BKN008

METARs EXPIRÉS :
  • 280630Z 24008KT 9999 FEW016CB 01/M01 Q0994 TEMPO 3000 BKN008
  • 280600Z 24007KT 9999 FEW016CB 00/M01 Q0994 TEMPO 3000 BKN008
  • 280530Z 24006KT 9999 SCT016CB M00/M01 Q0994 TEMPO 3000 BKN008
  • 280500Z 26010KT 9999 SCT016CB 01/M01 Q0994 TEMPO 3000 BKN008
  • 280430Z 26009KT 9999 FEW006 SCT016CB 01/M01 Q0994 TEMPO 3000 BKN008

TAF TAF EICK
Valide du 28 à 06h jusqu'au 29 à 06h UTC


280500Z 2806/2906 25013KT 9999 FEW017 SCT020
TEMPO 2806/2810 25015G26KT 3000 -SHSN BKN005 BKN017CB
PROB30
TEMPO 2806/2810 1500 SHSN BKN003
BECMG 2810/2812 27019G31KT
TEMPO 2810/2812 4000 -SHRASN BKN008 SCT017CB
TEMPO 2812/2820 5000 -SHRA SCT010 SCT017CB
BECMG 2816/2818 27015KT
BECMG 2820/2822 24010KT
PROB30
TEMPO 2820/2823 3000 -SHRASN BKN008 SCT017CB



MET'MAP, la Météo Aéronautique d'un coup d'oeil ! - Copyright ORBIFLY Décembre 2007 - Disclaimer

ORBIFLY MET'MAP TEAM :

Programmation & Développement : Alexandra Zaïnal
Sur une idée originale de : Baudouin d'Aumeries
Assistance à la programmation : Marc-Olivier Méhu
Soutien technique & logistique : Manuel Goepfert

Contact : metmap@orbifly.com




SOURCES & CREDITS :

   NOAA